createdAt,value
2022-09-23T00:00:58.304Z,84.61
2022-09-23T00:01:58.284Z,84.20
2022-09-23T00:02:58.306Z,84.40
2022-09-23T00:03:58.179Z,84.09
2022-09-23T00:04:58.185Z,84.09
2022-09-23T00:05:58.194Z,83.78
2022-09-23T00:06:58.188Z,83.17
2022-09-23T00:07:58.210Z,83.37
2022-09-23T00:08:58.145Z,83.17
2022-09-23T00:09:58.135Z,82.82
2022-09-23T00:10:58.159Z,82.92
2022-09-23T00:11:58.107Z,82.51
2022-09-23T00:12:58.116Z,82.20
2022-09-23T00:13:58.076Z,82.41
2022-09-23T00:14:58.048Z,82.62
2022-09-23T00:15:58.025Z,82.31
2022-09-23T00:16:58.079Z,81.96
2022-09-23T00:17:58.036Z,81.86
2022-09-23T00:18:58.053Z,81.76
2022-09-23T00:19:57.974Z,81.86
2022-09-23T00:20:58.028Z,81.76
2022-09-23T00:21:57.990Z,81.65
2022-09-23T00:22:57.960Z,81.86
2022-09-23T00:23:57.946Z,81.96
2022-09-23T00:24:57.977Z,81.96
2022-09-23T00:25:57.942Z,81.96
2022-09-23T00:26:57.916Z,82.17
2022-09-23T00:27:57.884Z,82.27
2022-09-23T00:28:57.903Z,82.47
2022-09-23T00:29:57.862Z,82.17
2022-09-23T00:30:57.923Z,81.76
2022-09-23T00:31:57.905Z,81.96
2022-09-23T00:32:57.853Z,81.76
2022-09-23T00:33:57.802Z,82.00
2022-09-23T00:34:57.782Z,82.31
2022-09-23T00:35:57.861Z,82.41
2022-09-23T00:36:57.830Z,82.31
2022-09-23T00:37:57.751Z,82.82
2022-09-23T00:38:57.730Z,82.62
2022-09-23T00:39:57.734Z,82.92
2022-09-23T00:40:57.736Z,82.92
2022-09-23T00:41:57.709Z,83.13
2022-09-23T00:42:57.727Z,83.03
2022-09-23T00:43:57.666Z,83.03
2022-09-23T00:44:57.806Z,82.82
2022-09-23T00:45:57.691Z,82.82
2022-09-23T00:46:57.654Z,82.62
2022-09-23T00:47:57.614Z,83.13
2022-09-23T00:48:57.680Z,82.62
2022-09-23T00:49:57.579Z,82.82
2022-09-23T00:50:57.582Z,82.82
2022-09-23T00:51:57.605Z,82.51
2022-09-23T00:52:57.567Z,82.82
2022-09-23T00:53:57.528Z,82.82
2022-09-23T00:54:57.587Z,82.92
2022-09-23T00:55:57.529Z,82.71
2022-09-23T00:56:57.525Z,82.62
2022-09-23T00:57:57.546Z,83.03
2022-09-23T00:58:57.506Z,82.62
2022-09-23T00:59:57.448Z,82.82
2022-09-23T01:00:57.552Z,82.82
2022-09-23T01:01:57.488Z,82.82
2022-09-23T01:02:57.427Z,82.82
2022-09-23T01:03:57.416Z,82.82
2022-09-23T01:04:57.388Z,82.82
2022-09-23T01:05:57.384Z,83.23
2022-09-23T01:06:57.413Z,83.48
2022-09-23T01:07:57.353Z,83.78
2022-09-23T01:08:57.349Z,84.20
2022-09-23T01:09:57.367Z,84.09
2022-09-23T01:10:57.316Z,84.09
2022-09-23T01:11:57.303Z,84.40
2022-09-23T01:12:57.328Z,84.50
2022-09-23T01:13:57.352Z,84.50
2022-09-23T01:14:57.272Z,84.71
2022-09-23T01:15:57.232Z,84.40
2022-09-23T01:16:57.373Z,84.40
2022-09-23T01:17:57.213Z,84.30
2022-09-23T01:18:57.272Z,84.30
2022-09-23T01:19:57.237Z,84.20
2022-09-23T01:20:57.203Z,84.20
2022-09-23T01:21:57.184Z,84.40
2022-09-23T01:22:57.170Z,84.20
2022-09-23T01:23:57.145Z,84.09
2022-09-23T01:24:57.222Z,83.89
2022-09-23T01:25:57.151Z,84.09
2022-09-23T01:26:57.134Z,84.50
2022-09-23T01:27:57.092Z,84.50
2022-09-23T01:28:57.094Z,84.09
2022-09-23T01:29:57.099Z,84.30
2022-09-23T01:30:57.194Z,84.40
2022-09-23T01:31:57.046Z,84.40
2022-09-23T01:32:57.047Z,84.40
2022-09-23T01:33:57.034Z,84.40
2022-09-23T01:34:57.005Z,84.40
2022-09-23T01:35:56.995Z,84.30
2022-09-23T01:36:57.018Z,84.50
2022-09-23T01:37:56.950Z,84.50
2022-09-23T01:38:56.973Z,84.50
2022-09-23T01:39:56.922Z,84.71
2022-09-23T01:40:56.925Z,84.81
2022-09-23T01:41:56.965Z,85.12
2022-09-23T01:42:56.968Z,84.95
2022-09-23T01:43:56.863Z,85.36
2022-09-23T01:44:56.909Z,85.68
2022-09-23T01:45:56.874Z,85.33
2022-09-23T01:46:56.889Z,85.36
2022-09-23T01:47:56.859Z,85.47
2022-09-23T01:48:56.947Z,85.57
2022-09-23T01:49:56.784Z,85.57
2022-09-23T01:50:56.848Z,85.78
2022-09-23T01:51:56.782Z,85.88
2022-09-23T01:52:56.788Z,85.78
2022-09-23T01:53:56.761Z,85.68
2022-09-23T01:54:56.838Z,85.98
2022-09-23T01:55:56.713Z,85.57
2022-09-23T01:56:56.725Z,85.78
2022-09-23T01:57:56.721Z,85.98
2022-09-23T01:58:56.720Z,85.98
2022-09-23T01:59:56.664Z,86.08
2022-09-23T02:00:56.760Z,86.40
2022-09-23T02:01:56.789Z,86.50
2022-09-23T02:02:56.646Z,86.70
2022-09-23T02:03:56.635Z,86.74
2022-09-23T02:04:56.641Z,87.05
2022-09-23T02:05:56.598Z,87.12
2022-09-23T02:06:56.626Z,87.22
2022-09-23T02:07:56.624Z,86.80
2022-09-23T02:08:56.591Z,87.12
2022-09-23T02:10:03.461Z,86.80
2022-09-23T02:10:56.521Z,86.70
2022-09-23T02:11:58.745Z,87.15
2022-09-23T02:12:56.569Z,87.15
2022-09-23T02:13:56.534Z,87.15
2022-09-23T02:14:56.495Z,87.26
2022-09-23T02:15:56.470Z,87.15
2022-09-23T02:16:56.545Z,87.36
2022-09-23T02:17:56.463Z,87.77
2022-09-23T02:18:56.449Z,87.57
2022-09-23T02:19:56.459Z,87.77
2022-09-23T02:20:56.399Z,88.23
2022-09-23T02:21:56.381Z,88.64
2022-09-23T02:22:56.400Z,88.84
2022-09-23T02:23:56.361Z,88.84
2022-09-23T02:24:56.411Z,89.15
2022-09-23T02:25:56.367Z,89.36
2022-09-23T02:26:56.340Z,89.25
2022-09-23T02:27:56.323Z,89.05
2022-09-23T02:28:56.297Z,89.36
2022-09-23T02:29:56.283Z,89.36
2022-09-23T02:30:56.305Z,89.25
2022-09-23T02:31:56.303Z,89.56
2022-09-23T02:32:56.228Z,89.46
2022-09-23T02:33:56.264Z,89.56
2022-09-23T02:34:56.210Z,89.67
2022-09-23T02:35:56.236Z,89.56
2022-09-23T02:36:56.262Z,89.25
2022-09-23T02:37:56.189Z,88.95
2022-09-23T02:38:56.172Z,88.64
2022-09-23T02:39:56.150Z,88.64
2022-09-23T02:40:56.122Z,88.64
2022-09-23T02:41:56.165Z,88.84
2022-09-23T02:42:56.130Z,89.05
2022-09-23T02:43:56.101Z,89.67
2022-09-23T02:44:56.093Z,89.46
2022-09-23T02:45:56.140Z,89.81
2022-09-23T02:46:56.046Z,89.91
2022-09-23T02:47:56.070Z,89.97
2022-09-23T02:48:56.070Z,89.87
2022-09-23T02:49:56.029Z,89.87
2022-09-23T02:50:56.000Z,89.67
2022-09-23T02:51:55.990Z,89.87
2022-09-23T02:52:55.983Z,89.61
2022-09-23T02:53:56.014Z,89.71
2022-09-23T02:54:55.981Z,90.22
2022-09-23T02:55:55.970Z,90.67
2022-09-23T02:56:55.941Z,90.88
2022-09-23T02:57:55.910Z,90.47
2022-09-23T02:58:55.888Z,91.24
2022-09-23T02:59:55.909Z,91.24
2022-09-23T03:00:55.965Z,91.75
2022-09-23T03:01:55.923Z,91.69
2022-09-23T03:02:55.842Z,92.31
2022-09-23T03:03:55.887Z,93.03
2022-09-23T03:04:55.810Z,93.24
2022-09-23T03:05:55.809Z,93.54
2022-09-23T03:06:55.848Z,93.69
2022-09-23T03:07:55.775Z,94.52
2022-09-23T03:08:55.751Z,94.57
2022-09-23T03:09:55.762Z,94.47
2022-09-23T03:10:55.731Z,93.85
2022-09-23T03:11:55.736Z,93.90
2022-09-23T03:12:55.786Z,94.10
2022-09-23T03:13:55.705Z,94.52
2022-09-23T03:14:55.683Z,94.10
2022-09-23T03:15:55.739Z,95.03
2022-09-23T03:16:55.643Z,95.55
2022-09-23T03:17:55.656Z,95.34
2022-09-23T03:18:55.702Z,95.03
2022-09-23T03:19:55.626Z,94.78
2022-09-23T03:20:55.631Z,94.78
2022-09-23T03:21:55.629Z,94.47
2022-09-23T03:22:55.583Z,94.37
2022-09-23T03:23:55.575Z,94.17
2022-09-23T03:24:55.606Z,94.27
2022-09-23T03:25:55.554Z,94.47
2022-09-23T03:26:55.527Z,94.47
2022-09-23T03:27:55.546Z,94.17
2022-09-23T03:28:55.540Z,94.02
2022-09-23T03:29:55.496Z,93.91
2022-09-23T03:30:55.515Z,93.71
2022-09-23T03:31:55.558Z,93.50
2022-09-23T03:32:55.448Z,93.40
2022-09-23T03:33:55.461Z,93.19
2022-09-23T03:34:55.416Z,93.40
2022-09-23T03:35:55.420Z,93.30
2022-09-23T03:36:55.445Z,93.50
2022-09-23T03:37:55.388Z,93.50
2022-09-23T03:38:55.356Z,93.50
2022-09-23T03:39:55.404Z,93.50
2022-09-23T03:40:55.459Z,93.40
2022-09-23T03:41:55.341Z,93.40
2022-09-23T03:42:55.375Z,93.25
2022-09-23T03:43:55.325Z,92.94
2022-09-23T03:44:55.287Z,93.05
2022-09-23T03:45:55.346Z,92.88
2022-09-23T03:46:55.276Z,92.88
2022-09-23T03:47:55.253Z,93.50
2022-09-23T03:48:55.273Z,93.60
2022-09-23T03:49:55.250Z,93.50
2022-09-23T03:50:55.208Z,93.71
2022-09-23T03:51:55.204Z,93.71
2022-09-23T03:52:55.197Z,93.81
2022-09-23T03:53:55.182Z,93.91
2022-09-23T03:54:55.205Z,93.81
2022-09-23T03:55:55.245Z,94.32
2022-09-23T03:56:55.131Z,94.27
2022-09-23T03:57:55.128Z,93.96
2022-09-23T03:58:55.115Z,93.44
2022-09-23T03:59:55.113Z,93.28
2022-09-23T04:00:55.173Z,94.10
2022-09-23T04:01:55.086Z,94.46
2022-09-23T04:02:55.087Z,94.71
2022-09-23T04:03:55.050Z,95.02
2022-09-23T04:04:55.027Z,95.12
2022-09-23T04:05:55.029Z,95.53
2022-09-23T04:06:55.039Z,95.27
2022-09-23T04:07:54.993Z,96.30
2022-09-23T04:08:55.004Z,97.17
2022-09-23T04:09:54.994Z,97.38
2022-09-23T04:10:55.094Z,97.38
2022-09-23T04:11:54.977Z,97.28
2022-09-23T04:12:54.954Z,97.22
2022-09-23T04:13:54.930Z,97.84
2022-09-23T04:14:54.930Z,98.97
2022-09-23T04:15:54.940Z,99.29
2022-09-23T04:16:54.864Z,99.74
2022-09-23T04:17:54.889Z,99.54
2022-09-23T04:18:54.881Z,99.54
2022-09-23T04:19:54.837Z,99.99
2022-09-23T04:20:54.852Z,99.99
2022-09-23T04:21:54.809Z,99.99
2022-09-23T04:22:54.788Z,99.99
2022-09-23T04:23:54.784Z,99.99
2022-09-23T04:24:54.812Z,99.99
2022-09-23T04:25:54.806Z,99.99
2022-09-23T04:26:54.755Z,99.99
2022-09-23T04:27:54.779Z,99.99
2022-09-23T04:28:54.734Z,99.99
2022-09-23T04:29:54.718Z,99.99
2022-09-23T04:30:54.765Z,99.99
2022-09-23T04:31:54.781Z,99.99
2022-09-23T04:32:54.653Z,99.99
2022-09-23T04:33:54.717Z,99.99
2022-09-23T04:34:54.637Z,99.99
2022-09-23T04:35:54.627Z,99.99
2022-09-23T04:36:54.679Z,99.99
2022-09-23T04:37:54.645Z,99.99
2022-09-23T04:38:54.606Z,99.99
2022-09-23T04:39:54.631Z,99.99
2022-09-23T04:40:54.551Z,99.99
2022-09-23T04:41:54.551Z,99.99
2022-09-23T04:42:54.585Z,99.99
2022-09-23T04:43:54.569Z,99.99
2022-09-23T04:44:54.503Z,99.99
2022-09-23T04:45:54.513Z,99.99
2022-09-23T04:46:54.558Z,99.99
2022-09-23T04:47:54.436Z,99.99
2022-09-23T04:48:54.442Z,99.99
2022-09-23T04:49:58.988Z,99.99
2022-09-23T04:50:54.420Z,99.99
2022-09-23T04:51:54.394Z,99.99
2022-09-23T04:52:54.385Z,99.99
2022-09-23T04:53:54.379Z,99.99
2022-09-23T04:54:54.352Z,99.99
2022-09-23T04:55:54.317Z,99.99
2022-09-23T04:56:54.291Z,99.99
2022-09-23T04:57:54.316Z,99.99
2022-09-23T04:58:54.278Z,99.99
2022-09-23T04:59:54.321Z,99.99
2022-09-23T05:00:54.430Z,99.99
2022-09-23T05:01:54.323Z,99.99
2022-09-23T05:02:54.268Z,99.99
2022-09-23T05:03:54.231Z,99.99
2022-09-23T05:04:54.213Z,99.99
2022-09-23T05:05:54.219Z,99.99
2022-09-23T05:06:54.233Z,99.99
2022-09-23T05:07:54.165Z,99.99
2022-09-23T05:08:54.164Z,99.99
2022-09-23T05:09:54.280Z,99.99
2022-09-23T05:10:54.154Z,99.99
2022-09-23T05:11:54.110Z,99.99
2022-09-23T05:12:57.267Z,99.99
2022-09-23T05:13:54.099Z,99.99
2022-09-23T05:14:54.122Z,99.99
2022-09-23T05:15:54.254Z,99.99
2022-09-23T05:16:54.112Z,99.99
2022-09-23T05:17:54.048Z,99.99
2022-09-23T05:18:54.063Z,99.99
2022-09-23T05:19:54.027Z,99.99
2022-09-23T05:20:53.998Z,99.99
2022-09-23T05:21:54.006Z,99.99
2022-09-23T05:22:53.974Z,99.99
2022-09-23T05:23:53.959Z,99.99
2022-09-23T05:24:54.024Z,99.99
2022-09-23T05:25:53.926Z,99.99
2022-09-23T05:26:53.895Z,99.99
2022-09-23T05:27:53.938Z,99.99
2022-09-23T05:28:53.950Z,99.99
2022-09-23T05:29:53.868Z,99.99
2022-09-23T05:30:53.894Z,99.99
2022-09-23T05:31:53.894Z,99.99
2022-09-23T05:32:53.818Z,99.99
2022-09-23T05:33:53.840Z,99.99
2022-09-23T05:34:53.799Z,99.99
2022-09-23T05:35:53.793Z,99.99
2022-09-23T05:36:53.833Z,99.99
2022-09-23T05:37:53.794Z,99.99
2022-09-23T05:38:53.738Z,99.99
2022-09-23T05:39:53.787Z,99.99
2022-09-23T05:40:53.718Z,99.99
2022-09-23T05:41:53.731Z,99.99
2022-09-23T05:42:53.735Z,99.99
2022-09-23T05:43:53.719Z,99.99
2022-09-23T05:44:53.665Z,99.99
2022-09-23T05:45:53.715Z,99.99
2022-09-23T05:46:53.736Z,99.99
2022-09-23T05:47:53.652Z,99.99
2022-09-23T05:48:53.669Z,99.99
2022-09-23T05:50:00.071Z,99.99
2022-09-23T05:50:53.623Z,99.99
2022-09-23T05:51:53.581Z,99.99
2022-09-23T05:52:53.564Z,99.99
2022-09-23T05:53:53.556Z,99.99
2022-09-23T05:54:53.621Z,99.99
2022-09-23T05:55:53.704Z,99.99
2022-09-23T05:56:53.512Z,99.99
2022-09-23T05:57:53.572Z,99.99
2022-09-23T05:58:53.479Z,99.99
2022-09-23T05:59:53.485Z,99.93
2022-09-23T06:00:53.638Z,99.82
2022-09-23T06:01:56.429Z,99.47
2022-09-23T06:02:53.458Z,99.16
2022-09-23T06:03:53.447Z,98.85
2022-09-23T06:04:53.411Z,98.75
2022-09-23T06:05:53.391Z,98.65
2022-09-23T06:06:53.630Z,98.13
2022-09-23T06:07:53.536Z,97.72
2022-09-23T06:08:53.362Z,97.72
2022-09-23T06:09:53.370Z,97.51
2022-09-23T06:10:54.562Z,97.92
2022-09-23T06:11:53.320Z,97.82
2022-09-23T06:12:53.354Z,97.67
2022-09-23T06:13:53.352Z,97.77
2022-09-23T06:14:53.261Z,97.56
2022-09-23T06:15:53.372Z,97.56
2022-09-23T06:16:53.261Z,97.16
2022-09-23T06:17:53.236Z,97.05
2022-09-23T06:18:53.306Z,97.16
2022-09-23T06:19:53.223Z,97.16
2022-09-23T06:20:53.224Z,97.26
2022-09-23T06:21:53.196Z,97.01
2022-09-23T06:22:55.452Z,96.80
2022-09-23T06:23:56.165Z,96.70
2022-09-23T06:24:53.194Z,96.49
2022-09-23T06:25:53.159Z,96.59
2022-09-23T06:26:53.126Z,96.45
2022-09-23T06:27:53.160Z,96.55
2022-09-23T06:28:53.127Z,96.45
2022-09-23T06:29:53.134Z,96.24
2022-09-23T06:30:53.148Z,95.93
2022-09-23T06:31:53.092Z,96.03
2022-09-23T06:32:53.066Z,95.68
2022-09-23T06:34:03.397Z,95.68
2022-09-23T06:34:53.059Z,95.27
2022-09-23T06:35:59.010Z,95.17
2022-09-23T06:36:53.076Z,95.27
2022-09-23T06:37:52.964Z,95.37
2022-09-23T06:38:52.972Z,95.48
2022-09-23T06:39:52.943Z,95.27
2022-09-23T06:40:52.975Z,95.48
2022-09-23T06:41:52.912Z,95.27
2022-09-23T06:42:52.977Z,95.06
2022-09-23T06:43:52.889Z,94.96
2022-09-23T06:44:52.886Z,94.92
2022-09-23T06:45:52.939Z,94.92
2022-09-23T06:46:52.932Z,94.81
2022-09-23T06:47:52.841Z,94.81
2022-09-23T06:48:53.020Z,94.51
2022-09-23T06:49:52.805Z,94.20
2022-09-23T06:50:52.849Z,94.20
2022-09-23T06:51:52.789Z,94.40
2022-09-23T06:52:52.802Z,94.77
2022-09-23T06:53:52.768Z,94.40
2022-09-23T06:54:52.850Z,94.26
2022-09-23T06:55:52.748Z,94.26
2022-09-23T06:56:52.757Z,94.36
2022-09-23T06:57:52.739Z,94.46
2022-09-23T06:58:52.733Z,94.87
2022-09-23T06:59:52.687Z,95.03
2022-09-23T07:00:52.774Z,94.93
2022-09-23T07:01:52.746Z,94.83
2022-09-23T07:02:52.681Z,94.93
2022-09-23T07:03:52.646Z,94.93
2022-09-23T07:04:52.656Z,94.83
2022-09-23T07:05:52.602Z,94.73
2022-09-23T07:06:52.671Z,94.73
2022-09-23T07:07:52.581Z,94.93
2022-09-23T07:08:52.572Z,95.03
2022-09-23T07:09:52.636Z,94.73
2022-09-23T07:10:52.563Z,94.93
2022-09-23T07:11:52.520Z,95.14
2022-09-23T07:12:52.589Z,94.93
2022-09-23T07:13:52.503Z,95.03
2022-09-23T07:14:52.500Z,95.03
2022-09-23T07:15:52.555Z,95.28
2022-09-23T07:16:52.471Z,95.34
2022-09-23T07:17:52.445Z,94.87
2022-09-23T07:18:52.508Z,94.98
2022-09-23T07:19:52.427Z,95.28
2022-09-23T07:20:52.443Z,95.65
2022-09-23T07:21:52.408Z,95.34
2022-09-23T07:22:52.392Z,95.55
2022-09-23T07:23:52.372Z,95.34
2022-09-23T07:24:52.418Z,94.62
2022-09-23T07:25:52.338Z,94.62
2022-09-23T07:26:52.339Z,94.93
2022-09-23T07:27:52.325Z,94.68
2022-09-23T07:28:52.308Z,94.37
2022-09-23T07:29:52.279Z,94.27
2022-09-23T07:30:59.861Z,93.92
2022-09-23T07:31:53.521Z,93.61
2022-09-23T07:32:52.322Z,93.30
2022-09-23T07:33:52.246Z,92.64
2022-09-23T07:34:52.248Z,92.85
2022-09-23T07:35:52.221Z,92.70
2022-09-23T07:36:52.274Z,92.08
2022-09-23T07:37:52.179Z,91.99
2022-09-23T07:38:52.198Z,91.33
2022-09-23T07:39:52.207Z,91.53
2022-09-23T07:40:52.232Z,91.22
2022-09-23T07:41:52.123Z,90.46
2022-09-23T07:42:52.170Z,90.46
2022-09-23T07:43:52.117Z,90.05
2022-09-23T07:44:52.139Z,89.75
2022-09-23T07:45:52.083Z,88.72
2022-09-23T07:46:52.160Z,87.65
2022-09-23T07:47:52.076Z,88.06
2022-09-23T07:48:52.076Z,87.24
2022-09-23T07:49:52.024Z,87.14
2022-09-23T07:50:52.026Z,86.99
2022-09-23T07:51:52.019Z,86.90
2022-09-23T07:52:51.995Z,86.28
2022-09-23T07:53:52.014Z,87.16
2022-09-23T07:54:52.000Z,86.14
2022-09-23T07:55:51.958Z,86.85
2022-09-23T07:56:52.015Z,86.44
2022-09-23T07:57:51.921Z,86.75
2022-09-23T07:58:51.941Z,86.51
2022-09-23T07:59:51.901Z,86.61
2022-09-23T08:00:51.936Z,85.64
2022-09-23T08:01:51.910Z,85.85
2022-09-23T08:02:53.099Z,85.64
2022-09-23T08:03:51.889Z,85.91
2022-09-23T08:04:51.837Z,84.58
2022-09-23T08:05:51.817Z,83.76
2022-09-23T08:06:51.836Z,83.62
2022-09-23T08:07:51.778Z,83.52
2022-09-23T08:08:53.502Z,82.91
2022-09-23T08:09:51.751Z,83.18
2022-09-23T08:10:51.794Z,82.56
2022-09-23T08:11:51.744Z,83.38
2022-09-23T08:12:51.728Z,82.87
2022-09-23T08:13:51.737Z,83.24
2022-09-23T08:14:51.711Z,81.71
2022-09-23T08:15:55.365Z,80.79
2022-09-23T08:16:51.701Z,81.40
2022-09-23T08:17:51.678Z,80.96
2022-09-23T08:18:51.705Z,79.93
2022-09-23T08:19:51.625Z,78.30
2022-09-23T08:20:51.659Z,79.39
2022-09-23T08:21:51.632Z,78.67
2022-09-23T08:22:51.589Z,77.45
2022-09-23T08:23:51.571Z,77.14
2022-09-23T08:24:52.669Z,77.11
2022-09-23T08:25:51.565Z,77.41
2022-09-23T08:26:51.543Z,77.00
2022-09-23T08:27:51.558Z,75.98
2022-09-23T08:28:51.515Z,76.25
2022-09-23T08:29:51.493Z,76.05
2022-09-23T08:30:51.562Z,75.44
2022-09-23T08:31:51.567Z,75.51
2022-09-23T08:32:51.531Z,74.99
2022-09-23T08:33:51.446Z,74.69
2022-09-23T08:34:51.434Z,73.57
2022-09-23T08:35:51.404Z,73.67
2022-09-23T08:36:51.425Z,73.77
2022-09-23T08:37:51.375Z,73.94
2022-09-23T08:38:51.403Z,72.82
2022-09-23T08:39:51.408Z,72.82
2022-09-23T08:40:51.355Z,72.82
2022-09-23T08:41:54.864Z,72.92
2022-09-23T08:42:51.343Z,72.17
2022-09-23T08:43:51.343Z,72.48
2022-09-23T08:44:51.300Z,72.45
2022-09-23T08:45:51.405Z,72.14
2022-09-23T08:46:51.276Z,71.12
2022-09-23T08:47:51.249Z,71.43
2022-09-23T08:48:51.256Z,71.64
2022-09-23T08:49:51.246Z,71.33
2022-09-23T08:50:51.218Z,70.82
2022-09-23T08:51:51.219Z,71.33
2022-09-23T08:52:51.200Z,72.31
2022-09-23T08:53:51.186Z,71.09
2022-09-23T08:54:55.239Z,70.07
2022-09-23T08:55:51.143Z,69.06
2022-09-23T08:56:51.162Z,70.38
2022-09-23T08:58:14.127Z,70.75
2022-09-23T08:58:51.158Z,70.75
2022-09-23T08:59:51.087Z,69.84
2022-09-23T09:00:51.145Z,68.92
2022-09-23T09:01:51.188Z,69.53
2022-09-23T09:02:51.166Z,70.72
2022-09-23T09:03:51.067Z,70.42
2022-09-23T09:04:51.062Z,69.91
2022-09-23T09:05:54.417Z,69.87
2022-09-23T09:06:54.040Z,70.18
2022-09-23T09:07:51.012Z,68.05
2022-09-23T09:08:51.000Z,68.18
2022-09-23T09:09:50.973Z,68.76
2022-09-23T09:10:50.966Z,69.26
2022-09-23T09:11:51.112Z,68.05
2022-09-23T09:12:50.947Z,69.26
2022-09-23T09:13:50.957Z,68.15
2022-09-23T09:14:50.942Z,67.91
2022-09-23T09:15:50.905Z,69.74
2022-09-23T09:17:06.223Z,68.62
2022-09-23T09:17:50.858Z,67.88
2022-09-23T09:18:50.875Z,67.17
2022-09-23T09:19:50.866Z,67.44
2022-09-23T09:20:50.843Z,65.82
2022-09-23T09:21:50.792Z,65.95
2022-09-23T09:22:50.826Z,66.26
2022-09-23T09:23:50.787Z,66.36
2022-09-23T09:24:50.779Z,67.27
2022-09-23T09:25:50.742Z,67.24
2022-09-23T09:26:50.771Z,68.56
2022-09-23T09:27:50.792Z,67.21
2022-09-23T09:28:50.724Z,66.23
2022-09-23T09:29:50.708Z,66.53
2022-09-23T09:30:50.733Z,66.60
2022-09-23T09:31:50.716Z,65.08
2022-09-23T09:32:50.669Z,64.34
2022-09-23T09:33:50.715Z,64.47
2022-09-23T09:34:50.665Z,64.85
2022-09-23T09:35:50.610Z,64.44
2022-09-23T09:36:50.649Z,63.70
2022-09-23T09:37:53.257Z,65.12
2022-09-23T09:38:50.658Z,65.12
2022-09-23T09:39:50.581Z,64.69
2022-09-23T09:40:50.623Z,63.87
2022-09-23T09:41:50.604Z,62.99
2022-09-23T09:42:50.527Z,63.78
2022-09-23T09:43:50.521Z,63.17
2022-09-23T09:44:50.524Z,62.79
2022-09-23T09:45:53.895Z,63.57
2022-09-23T09:46:50.601Z,62.15
2022-09-23T09:47:50.455Z,62.66
2022-09-23T09:48:50.495Z,61.65
2022-09-23T09:49:50.503Z,61.75
2022-09-23T09:50:50.431Z,63.37
2022-09-23T09:51:50.396Z,61.85
2022-09-23T09:52:50.359Z,62.56
2022-09-23T09:53:50.320Z,61.75
2022-09-23T09:54:50.348Z,60.97
2022-09-23T09:55:50.374Z,61.07
2022-09-23T09:56:50.294Z,61.24
2022-09-23T09:57:50.280Z,61.85
2022-09-23T09:58:50.287Z,63.78
2022-09-23T09:59:50.246Z,61.44
2022-09-23T10:00:50.304Z,60.84
2022-09-23T10:01:50.274Z,60.81
2022-09-23T10:02:50.203Z,60.88
2022-09-23T10:03:52.108Z,60.14
2022-09-23T10:04:50.237Z,59.03
2022-09-23T10:05:50.233Z,58.73
2022-09-23T10:06:50.179Z,59.54
2022-09-23T10:07:50.152Z,60.98
2022-09-23T10:08:50.241Z,62.02
2022-09-23T10:09:50.690Z,62.33
2022-09-23T10:10:50.103Z,61.21
2022-09-23T10:11:50.170Z,60.68
2022-09-23T10:12:50.078Z,61.41
2022-09-23T10:13:50.046Z,59.87
2022-09-23T10:14:50.062Z,60.35
2022-09-23T10:15:50.033Z,60.55
2022-09-23T10:16:50.099Z,59.64
2022-09-23T10:17:49.994Z,61.90
2022-09-23T10:18:50.015Z,62.02
2022-09-23T10:19:50.010Z,61.79
2022-09-23T10:20:50.055Z,61.96
2022-09-23T10:21:49.975Z,61.66
2022-09-23T10:22:50.006Z,60.52
2022-09-23T10:23:49.909Z,62.54
2022-09-23T10:24:49.916Z,61.83
2022-09-23T10:25:49.934Z,58.70
2022-09-23T10:26:49.886Z,58.23
2022-09-23T10:27:49.891Z,60.25
2022-09-23T10:28:49.869Z,60.85
2022-09-23T10:29:49.826Z,61.87
2022-09-23T10:30:49.931Z,61.03
2022-09-23T10:31:49.815Z,60.72
2022-09-23T10:32:49.835Z,60.39
2022-09-23T10:33:49.794Z,61.00
2022-09-23T10:34:49.800Z,60.22
2022-09-23T10:35:49.794Z,60.62
2022-09-23T10:36:49.754Z,58.98
2022-09-23T10:37:49.771Z,58.45
2022-09-23T10:38:49.792Z,59.05
2022-09-23T10:39:49.700Z,60.33
2022-09-23T10:40:49.894Z,59.22
2022-09-23T10:41:49.677Z,59.96
2022-09-23T10:42:49.681Z,59.18
2022-09-23T10:43:49.666Z,59.99
2022-09-23T10:44:49.687Z,59.05
2022-09-23T10:45:49.707Z,59.15
2022-09-23T10:46:49.640Z,60.13
2022-09-23T10:47:49.633Z,58.22
2022-09-23T10:48:49.587Z,59.33
2022-09-23T10:49:49.657Z,57.81
2022-09-23T10:50:49.562Z,58.89
2022-09-23T10:51:49.555Z,58.29
2022-09-23T10:52:49.572Z,56.27
2022-09-23T10:53:49.541Z,57.18
2022-09-23T10:54:49.506Z,58.39
2022-09-23T10:55:49.564Z,57.61
2022-09-23T10:56:49.508Z,57.74
2022-09-23T10:57:49.487Z,59.25
2022-09-23T10:58:49.469Z,58.67
2022-09-23T10:59:49.475Z,60.39
2022-09-23T11:00:49.500Z,60.57
2022-09-23T11:01:49.478Z,59.48
2022-09-23T11:02:49.416Z,59.96
2022-09-23T11:03:49.433Z,54.91
2022-09-23T11:04:49.477Z,57.14
2022-09-23T11:05:49.379Z,59.33
2022-09-23T11:06:49.384Z,58.80
2022-09-23T11:07:49.361Z,56.77
2022-09-23T11:08:49.342Z,54.08
2022-09-23T11:09:49.336Z,56.93
2022-09-23T11:10:49.315Z,56.93
2022-09-23T11:11:49.338Z,54.91
2022-09-23T11:12:49.311Z,55.54
2022-09-23T11:13:54.077Z,54.83
2022-09-23T11:14:49.261Z,57.87
2022-09-23T11:15:49.422Z,56.56
2022-09-23T11:16:49.271Z,56.65
2022-09-23T11:17:49.257Z,55.85
2022-09-23T11:18:49.204Z,56.96
2022-09-23T11:19:49.217Z,55.21
2022-09-23T11:20:49.190Z,56.05
2022-09-23T11:21:49.177Z,56.38
2022-09-23T11:22:49.214Z,58.07
2022-09-23T11:23:49.168Z,58.78
2022-09-23T11:24:49.156Z,58.47
2022-09-23T11:25:49.186Z,57.06
2022-09-23T11:26:49.101Z,58.27
2022-09-23T11:27:49.099Z,58.78
2022-09-23T11:28:49.094Z,54.91
2022-09-23T11:29:49.074Z,54.43
2022-09-23T11:30:49.096Z,56.45
2022-09-23T11:31:49.051Z,53.65
2022-09-23T11:32:49.140Z,55.77
2022-09-23T11:33:49.056Z,56.48
2022-09-23T11:34:52.597Z,56.48
2022-09-23T11:35:49.009Z,57.39
2022-09-23T11:36:48.979Z,58.07
2022-09-23T11:37:49.023Z,57.76
2022-09-23T11:38:48.995Z,56.15
2022-09-23T11:39:48.952Z,58.07
2022-09-23T11:40:49.003Z,54.83
2022-09-23T11:41:48.925Z,54.61
2022-09-23T11:42:48.896Z,55.72
2022-09-23T11:43:48.913Z,54.94
2022-09-23T11:44:48.889Z,54.43
2022-09-23T11:45:48.910Z,54.76
2022-09-23T11:46:48.860Z,55.04
2022-09-23T11:47:48.845Z,54.05
2022-09-23T11:48:48.841Z,56.18
2022-09-23T11:49:48.893Z,55.14
2022-09-23T11:50:48.781Z,54.16
2022-09-23T11:51:48.787Z,55.24
2022-09-23T11:52:48.793Z,54.63
2022-09-23T11:53:48.758Z,54.61
2022-09-23T11:54:48.732Z,53.00
2022-09-23T11:55:57.094Z,53.63
2022-09-23T11:56:49.289Z,53.72
2022-09-23T11:57:49.590Z,53.93
2022-09-23T11:58:52.871Z,55.44
2022-09-23T12:00:52.355Z,52.89
2022-09-23T12:01:48.724Z,53.40
2022-09-23T12:03:00.770Z,52.47
2022-09-23T12:03:48.720Z,52.74
2022-09-23T12:04:56.767Z,55.16
2022-09-23T12:05:48.768Z,52.74
2022-09-23T12:06:48.608Z,51.84
2022-09-23T12:07:48.623Z,51.84
2022-09-23T12:08:48.589Z,51.08
2022-09-23T12:09:58.135Z,51.10
2022-09-23T12:10:48.541Z,53.72
2022-09-23T12:11:48.532Z,51.59
2022-09-23T12:12:48.511Z,49.67
2022-09-23T12:13:48.558Z,50.45
2022-09-23T12:14:48.475Z,51.34
2022-09-23T12:15:48.473Z,51.03
2022-09-23T12:16:48.560Z,49.04
2022-09-23T12:17:48.459Z,50.98
2022-09-23T12:18:48.422Z,51.08
2022-09-23T12:19:48.478Z,52.01
2022-09-23T12:20:48.403Z,52.49
2022-09-23T12:21:50.961Z,50.35
2022-09-23T12:22:48.388Z,50.78
2022-09-23T12:23:48.370Z,52.19
2022-09-23T12:24:48.340Z,51.18
2022-09-23T12:25:48.405Z,52.42
2022-09-23T12:26:48.313Z,51.73
2022-09-23T12:27:48.310Z,51.53
2022-09-23T12:28:48.315Z,51.13
2022-09-23T12:29:48.285Z,51.56
2022-09-23T12:30:48.392Z,51.15
2022-09-23T12:31:48.324Z,51.68
2022-09-23T12:32:48.257Z,51.56
2022-09-23T12:33:48.235Z,53.78
2022-09-23T12:34:48.253Z,52.44
2022-09-23T12:35:48.208Z,52.64
2022-09-23T12:36:48.216Z,52.24
2022-09-23T12:37:48.249Z,51.71
2022-09-23T12:38:48.172Z,52.29
2022-09-23T12:39:48.165Z,50.57
2022-09-23T12:40:48.238Z,49.65
2022-09-23T12:41:48.136Z,49.47
2022-09-23T12:42:48.147Z,49.95
2022-09-23T12:43:48.167Z,49.75
2022-09-23T12:44:48.080Z,50.65
2022-09-23T12:45:48.181Z,51.34
2022-09-23T12:46:48.068Z,51.34
2022-09-23T12:47:48.053Z,49.02
2022-09-23T12:48:48.023Z,48.54
2022-09-23T12:49:48.060Z,48.24
2022-09-23T12:50:48.006Z,48.24
2022-09-23T12:51:48.069Z,49.27
2022-09-23T12:52:47.979Z,49.75
2022-09-23T12:53:47.996Z,50.13